createdAt,value
2018-03-21T00:02:04.733Z,12.40
2018-03-21T00:04:33.866Z,12.85
2018-03-21T00:07:03.011Z,13.10
2018-03-21T00:09:32.224Z,11.98
2018-03-21T00:12:01.639Z,14.80
2018-03-21T00:14:31.509Z,13.65
2018-03-21T00:17:00.694Z,10.05
2018-03-21T00:19:29.845Z,11.05
2018-03-21T00:21:58.971Z,11.30
2018-03-21T00:24:28.224Z,12.48
2018-03-21T00:26:57.405Z,13.13
2018-03-21T00:29:26.608Z,13.50
2018-03-21T00:31:55.877Z,14.63
2018-03-21T00:34:25.106Z,14.87
2018-03-21T00:36:54.300Z,14.90
2018-03-21T00:39:23.664Z,15.68
2018-03-21T00:41:52.869Z,15.98
2018-03-21T00:44:22.064Z,14.73
2018-03-21T00:46:51.418Z,16.02
2018-03-21T00:49:20.623Z,14.50
2018-03-21T00:51:49.821Z,14.75
2018-03-21T00:54:19.087Z,13.18
2018-03-21T00:56:48.305Z,12.50
2018-03-21T00:59:24.022Z,13.68
2018-03-21T01:01:53.227Z,12.82
2018-03-21T01:04:22.508Z,17.62
2018-03-21T01:06:51.717Z,15.43
2018-03-21T01:09:21.002Z,14.93
2018-03-21T01:11:50.261Z,14.48
2018-03-21T01:14:19.464Z,13.95
2018-03-21T01:16:48.683Z,12.77
2018-03-21T01:19:17.947Z,11.20
2018-03-21T01:21:47.491Z,11.60
2018-03-21T01:24:16.775Z,11.73
2018-03-21T01:26:46.080Z,10.57
2018-03-21T01:29:15.274Z,10.57
2018-03-21T01:31:44.547Z,10.38
2018-03-21T01:34:13.897Z,10.95
2018-03-21T01:36:42.988Z,10.70
2018-03-21T01:39:12.180Z,10.23
2018-03-21T01:41:41.465Z,10.73
2018-03-21T01:44:10.662Z,10.73
2018-03-21T01:46:39.900Z,10.77
2018-03-21T01:49:09.363Z,9.73
2018-03-21T01:51:38.528Z,9.55
2018-03-21T01:54:07.736Z,10.13
2018-03-21T01:56:37.011Z,8.43
2018-03-21T01:59:06.236Z,8.52
2018-03-21T02:01:36.054Z,8.45
2018-03-21T02:04:05.492Z,9.02
2018-03-21T02:06:34.690Z,8.38
2018-03-21T02:09:03.496Z,8.77
2018-03-21T02:11:32.772Z,8.27
2018-03-21T02:14:01.981Z,8.30
2018-03-21T02:16:31.182Z,9.07
2018-03-21T02:19:00.660Z,8.45
2018-03-21T02:21:29.863Z,15.27
2018-03-21T02:23:59.045Z,9.82
2018-03-21T02:26:28.314Z,14.25
2018-03-21T02:28:57.499Z,9.20
2018-03-21T02:31:26.274Z,12.00
2018-03-21T02:33:55.570Z,10.02
2018-03-21T02:36:24.782Z,10.73
2018-03-21T02:38:54.542Z,15.18
2018-03-21T02:41:23.851Z,10.70
2018-03-21T02:43:53.067Z,9.20
2018-03-21T02:46:22.562Z,8.75
2018-03-21T02:48:51.820Z,9.95
2018-03-21T02:51:20.984Z,9.15
2018-03-21T02:53:50.187Z,8.27
2018-03-21T02:56:20.230Z,7.57
2018-03-21T02:58:49.410Z,7.62
2018-03-21T03:01:18.614Z,7.60
2018-03-21T03:03:48.725Z,7.72
2018-03-21T03:06:17.828Z,7.50
2018-03-21T03:08:47.023Z,7.47
2018-03-21T03:11:16.280Z,7.22
2018-03-21T03:13:45.506Z,6.37
2018-03-21T03:16:14.816Z,7.28
2018-03-21T03:18:44.052Z,8.05
2018-03-21T03:21:13.264Z,7.05
2018-03-21T03:23:42.472Z,7.12
2018-03-21T03:26:11.785Z,7.25
2018-03-21T03:28:40.974Z,7.50
2018-03-21T03:31:10.174Z,7.50
2018-03-21T03:33:39.452Z,7.50
2018-03-21T03:36:08.674Z,8.02
2018-03-21T03:38:37.878Z,7.20
2018-03-21T03:41:07.154Z,7.97
2018-03-21T03:43:36.356Z,8.02
2018-03-21T03:46:05.565Z,7.25
2018-03-21T03:48:35.059Z,7.78
2018-03-21T03:51:04.263Z,8.10
2018-03-21T03:53:33.473Z,7.60
2018-03-21T03:56:02.761Z,7.55
2018-03-21T03:58:31.955Z,7.87
2018-03-21T04:01:01.160Z,7.68
2018-03-21T04:03:31.006Z,8.27
2018-03-21T04:06:00.407Z,7.72
2018-03-21T04:08:29.601Z,6.65
2018-03-21T04:10:59.825Z,7.75
2018-03-21T04:13:29.029Z,8.98
2018-03-21T04:15:58.220Z,8.55
2018-03-21T04:18:28.186Z,9.48
2018-03-21T04:20:57.287Z,8.50
2018-03-21T04:23:26.490Z,8.07
2018-03-21T04:25:55.761Z,8.25
2018-03-21T04:28:24.960Z,8.02
2018-03-21T04:30:54.144Z,8.27
2018-03-21T04:33:23.448Z,8.95
2018-03-21T04:35:52.649Z,8.30
2018-03-21T04:38:22.797Z,8.68
2018-03-21T04:40:52.815Z,8.73
2018-03-21T04:43:21.999Z,8.93
2018-03-21T04:45:51.089Z,8.93
2018-03-21T04:48:21.050Z,11.55
2018-03-21T04:50:51.255Z,10.20
2018-03-21T04:53:20.585Z,10.35
2018-03-21T04:55:49.756Z,17.80
2018-03-21T04:58:18.585Z,15.27
2018-03-21T05:00:47.851Z,12.27
2018-03-21T05:03:17.290Z,9.30
2018-03-21T05:05:46.480Z,8.38
2018-03-21T05:08:16.487Z,8.93
2018-03-21T05:10:45.727Z,12.13
2018-03-21T05:13:14.924Z,11.52
2018-03-21T05:15:44.234Z,10.40
2018-03-21T05:18:13.415Z,10.02
2018-03-21T05:20:42.624Z,7.55
2018-03-21T05:23:11.946Z,8.27
2018-03-21T05:25:42.924Z,7.68
2018-03-21T05:28:12.628Z,9.18
2018-03-21T05:30:41.854Z,10.20
2018-03-21T05:33:11.031Z,9.77
2018-03-21T05:35:40.284Z,8.38
2018-03-21T05:38:09.481Z,8.65
2018-03-21T05:40:38.815Z,9.80
2018-03-21T05:43:08.582Z,8.88
2018-03-21T05:45:37.776Z,8.88
2018-03-21T05:48:07.816Z,8.90
2018-03-21T05:50:37.129Z,9.07
2018-03-21T05:53:06.320Z,9.20
2018-03-21T05:55:35.647Z,9.50
2018-03-21T05:58:04.934Z,9.35
2018-03-21T06:00:34.144Z,10.27
2018-03-21T06:03:03.374Z,12.30
2018-03-21T06:05:32.673Z,10.43
2018-03-21T06:08:01.930Z,9.82
2018-03-21T06:10:31.133Z,14.20
2018-03-21T06:13:00.392Z,12.80
2018-03-21T06:15:29.578Z,14.70
2018-03-21T06:17:58.800Z,18.58
2018-03-21T06:20:28.087Z,10.23
2018-03-21T06:22:57.303Z,9.93
2018-03-21T06:25:26.541Z,10.70
2018-03-21T06:27:55.791Z,8.57
2018-03-21T06:30:25.013Z,9.25
2018-03-21T06:32:54.234Z,8.15
2018-03-21T06:35:23.526Z,8.63
2018-03-21T06:37:54.976Z,9.10
2018-03-21T06:40:24.376Z,7.78
2018-03-21T06:42:53.660Z,9.68
2018-03-21T06:45:22.865Z,8.52
2018-03-21T06:47:52.121Z,7.82
2018-03-21T06:50:21.306Z,9.95
2018-03-21T06:52:50.498Z,9.52
2018-03-21T06:55:19.816Z,8.57
2018-03-21T06:57:49.000Z,9.32
2018-03-21T07:00:18.231Z,10.85
2018-03-21T07:02:48.433Z,14.00
2018-03-21T07:05:18.450Z,8.77
2018-03-21T07:07:47.642Z,7.87
2018-03-21T07:10:16.918Z,8.65
2018-03-21T07:12:46.110Z,7.70
2018-03-21T07:15:26.324Z,8.13
2018-03-21T07:17:55.523Z,7.30
2018-03-21T07:20:24.731Z,7.30
2018-03-21T07:22:54.004Z,7.22
2018-03-21T07:25:23.224Z,6.70
2018-03-21T07:27:52.421Z,6.55
2018-03-21T07:30:22.371Z,6.80
2018-03-21T07:32:51.591Z,6.30
2018-03-21T07:35:20.788Z,6.30
2018-03-21T07:37:50.740Z,6.68
2018-03-21T07:40:20.358Z,8.40
2018-03-21T07:42:49.623Z,7.37
2018-03-21T07:45:18.939Z,6.35
2018-03-21T07:47:48.148Z,6.43
2018-03-21T07:50:17.438Z,6.12
2018-03-21T07:52:46.635Z,7.10
2018-03-21T07:55:15.837Z,7.35
2018-03-21T07:57:45.174Z,6.25
2018-03-21T08:00:14.386Z,6.28
2018-03-21T08:02:43.598Z,6.90
2018-03-21T08:05:12.865Z,11.52
2018-03-21T08:07:42.069Z,7.75
2018-03-21T08:10:11.280Z,6.87
2018-03-21T08:12:40.530Z,5.72
2018-03-21T08:15:09.736Z,5.95
2018-03-21T08:17:38.952Z,5.55
2018-03-21T08:20:08.248Z,4.87
2018-03-21T08:22:37.479Z,5.75
2018-03-21T08:25:06.694Z,7.72
2018-03-21T08:27:36.296Z,11.70
2018-03-21T08:30:05.676Z,10.10
2018-03-21T08:32:34.925Z,6.07
2018-03-21T08:35:04.218Z,5.45
2018-03-21T08:37:33.424Z,4.53
2018-03-21T08:40:02.637Z,5.28
2018-03-21T08:42:31.887Z,4.18
2018-03-21T08:45:01.103Z,4.55
2018-03-21T08:47:30.398Z,4.53
2018-03-21T08:49:59.660Z,15.27
2018-03-21T08:52:28.840Z,8.80
2018-03-21T08:54:58.071Z,9.00
2018-03-21T08:57:27.500Z,37.35
2018-03-21T08:59:56.724Z,7.07
2018-03-21T09:02:25.958Z,5.95
2018-03-21T09:04:55.297Z,6.95
2018-03-21T09:07:25.249Z,12.52
2018-03-21T09:09:54.618Z,22.58
2018-03-21T09:12:23.898Z,6.70
2018-03-21T09:14:53.091Z,5.90
2018-03-21T09:17:22.307Z,5.07
2018-03-21T09:19:51.628Z,8.20
2018-03-21T09:22:20.840Z,7.90
2018-03-21T09:24:50.029Z,4.43
2018-03-21T09:27:19.291Z,7.85
2018-03-21T09:29:48.510Z,6.35
2018-03-21T09:32:17.772Z,15.45
2018-03-21T09:34:47.029Z,10.90
2018-03-21T09:37:16.240Z,5.95
2018-03-21T09:39:45.449Z,14.50
2018-03-21T09:42:14.767Z,6.45
2018-03-21T09:44:43.959Z,5.03
2018-03-21T09:47:13.183Z,7.68
2018-03-21T09:49:42.491Z,19.33
2018-03-21T09:52:11.873Z,7.43
2018-03-21T09:54:44.682Z,6.03
2018-03-21T09:57:13.978Z,5.95
2018-03-21T09:59:43.066Z,6.65
2018-03-21T10:02:12.339Z,4.87
2018-03-21T10:04:41.567Z,5.70
2018-03-21T10:07:10.761Z,5.47
2018-03-21T10:09:40.049Z,7.18
2018-03-21T10:12:09.242Z,6.93
2018-03-21T10:14:38.440Z,3.40
2018-03-21T10:17:07.687Z,3.37
2018-03-21T10:19:36.891Z,4.03
2018-03-21T10:22:06.097Z,4.40
2018-03-21T10:24:35.359Z,4.20
2018-03-21T10:27:04.552Z,4.22
2018-03-21T10:29:33.747Z,3.80
2018-03-21T10:32:02.998Z,5.45
2018-03-21T10:34:32.274Z,4.12
2018-03-21T10:37:01.651Z,4.00
2018-03-21T10:39:30.920Z,4.22
2018-03-21T10:42:00.092Z,2.72
2018-03-21T10:44:29.186Z,3.90
2018-03-21T10:46:58.443Z,3.17
2018-03-21T10:49:28.489Z,3.30
2018-03-21T10:51:57.792Z,3.97
2018-03-21T10:54:27.036Z,3.78
2018-03-21T10:56:56.221Z,3.67
2018-03-21T10:59:25.405Z,3.80
2018-03-21T11:02:00.008Z,3.47
2018-03-21T11:04:29.230Z,2.47
2018-03-21T11:06:58.406Z,2.00
2018-03-21T11:09:27.734Z,2.45
2018-03-21T11:11:57.005Z,2.53
2018-03-21T11:14:26.369Z,2.80
2018-03-21T11:16:55.652Z,2.55
2018-03-21T11:19:24.842Z,2.15
2018-03-21T11:21:54.097Z,2.70
2018-03-21T11:24:23.347Z,2.30
2018-03-21T11:26:52.579Z,3.65
2018-03-21T11:29:21.807Z,3.60
2018-03-21T11:31:51.070Z,3.67
2018-03-21T11:34:20.303Z,3.28
2018-03-21T11:36:49.512Z,3.72
2018-03-21T11:39:18.788Z,2.90
2018-03-21T11:41:47.970Z,4.57
2018-03-21T11:44:17.180Z,4.50
2018-03-21T11:46:46.468Z,3.90
2018-03-21T11:49:15.983Z,2.90
2018-03-21T11:51:45.180Z,2.47
2018-03-21T11:54:14.525Z,2.53
2018-03-21T11:56:43.729Z,2.40
2018-03-21T11:59:12.918Z,2.53
2018-03-21T12:01:42.160Z,2.65
2018-03-21T12:04:11.394Z,2.72
2018-03-21T12:06:40.580Z,2.83
2018-03-21T12:09:09.583Z,2.90
2018-03-21T12:11:39.114Z,2.90
2018-03-21T12:14:08.315Z,4.72
2018-03-21T12:16:43.085Z,6.72
2018-03-21T12:19:12.275Z,4.25
2018-03-21T12:21:41.536Z,3.40
2018-03-21T12:24:10.730Z,3.10
2018-03-21T12:26:39.920Z,5.80
2018-03-21T12:29:09.279Z,3.22
2018-03-21T12:31:38.466Z,3.55
2018-03-21T12:34:07.688Z,6.15
2018-03-21T12:36:36.927Z,3.97
2018-03-21T12:39:05.580Z,2.70
2018-03-21T12:41:34.770Z,4.30
2018-03-21T12:44:04.030Z,8.77
2018-03-21T12:46:32.951Z,3.60
2018-03-21T12:49:02.204Z,3.42
2018-03-21T12:51:31.457Z,4.87
2018-03-21T12:54:00.661Z,2.90
2018-03-21T12:56:29.963Z,4.75
2018-03-21T12:58:59.231Z,6.12
2018-03-21T13:01:29.106Z,9.40
2018-03-21T13:03:58.219Z,3.80
2018-03-21T13:06:27.465Z,3.75
2018-03-21T13:08:57.286Z,36.05
2018-03-21T13:11:26.697Z,16.27
2018-03-21T13:13:55.948Z,9.45
2018-03-21T13:16:25.158Z,5.65
2018-03-21T13:18:54.739Z,7.68
2018-03-21T13:21:24.083Z,7.60
2018-03-21T13:23:53.307Z,3.37
2018-03-21T13:26:22.512Z,3.08
2018-03-21T13:28:51.792Z,4.25
2018-03-21T13:31:20.978Z,3.92
2018-03-21T13:33:50.213Z,2.87
2018-03-21T13:36:19.482Z,2.92
2018-03-21T13:38:48.710Z,4.00
2018-03-21T13:41:18.031Z,4.25
2018-03-21T13:43:47.914Z,3.40
2018-03-21T13:46:17.102Z,4.53
2018-03-21T13:48:47.811Z,5.75
2018-03-21T13:51:17.265Z,7.18
2018-03-21T13:53:46.443Z,3.33
2018-03-21T13:56:15.626Z,3.50
2018-03-21T13:58:44.988Z,4.00
2018-03-21T14:01:14.210Z,3.67
2018-03-21T14:03:43.427Z,4.72
2018-03-21T14:06:13.073Z,3.33
2018-03-21T14:08:42.306Z,3.65
2018-03-21T14:11:11.520Z,2.60
2018-03-21T14:13:40.767Z,3.67
2018-03-21T14:16:09.968Z,5.07
2018-03-21T14:18:39.165Z,3.30
2018-03-21T14:21:08.434Z,5.68
2018-03-21T14:23:37.652Z,7.62
2018-03-21T14:26:06.872Z,3.70
2018-03-21T14:28:36.118Z,3.42
2018-03-21T14:31:05.352Z,3.37
2018-03-21T14:33:34.538Z,2.50
2018-03-21T14:36:03.890Z,2.47
2018-03-21T14:38:33.089Z,2.78
2018-03-21T14:41:02.264Z,2.58
2018-03-21T14:43:32.367Z,4.18
2018-03-21T14:46:01.552Z,2.80
2018-03-21T14:48:30.761Z,3.42
2018-03-21T14:51:00.028Z,2.83
2018-03-21T14:53:29.240Z,3.25
2018-03-21T14:55:58.430Z,3.65
2018-03-21T14:58:28.061Z,4.03
2018-03-21T15:00:57.344Z,7.62
2018-03-21T15:03:26.549Z,3.70
2018-03-21T15:05:55.805Z,3.65
2018-03-21T15:08:24.977Z,3.55
2018-03-21T15:10:54.401Z,3.70
2018-03-21T15:13:23.685Z,3.65
2018-03-21T15:15:53.477Z,3.78
2018-03-21T15:18:22.696Z,19.35
2018-03-21T15:20:52.016Z,6.37
2018-03-21T15:23:21.239Z,9.07
2018-03-21T15:25:50.444Z,5.75
2018-03-21T15:28:19.713Z,4.78
2018-03-21T15:30:48.889Z,9.30
2018-03-21T15:33:18.081Z,4.90
2018-03-21T15:35:47.442Z,8.80
2018-03-21T15:38:16.643Z,5.65
2018-03-21T15:40:45.866Z,4.28
2018-03-21T15:43:15.128Z,3.20
2018-03-21T15:45:44.320Z,6.12
2018-03-21T15:48:13.522Z,7.00
2018-03-21T15:50:42.800Z,6.28
2018-03-21T15:53:12.023Z,5.85
2018-03-21T15:55:41.240Z,5.65
2018-03-21T15:58:10.492Z,5.00
2018-03-21T16:00:39.705Z,6.00
2018-03-21T16:03:09.015Z,5.35
2018-03-21T16:05:38.279Z,4.12
2018-03-21T16:08:07.528Z,4.78
2018-03-21T16:10:36.730Z,3.15
2018-03-21T16:13:06.020Z,5.80
2018-03-21T16:15:35.275Z,20.55
2018-03-21T16:18:04.538Z,22.10
2018-03-21T16:20:33.867Z,60.35
2018-03-21T16:23:03.077Z,102.82
2018-03-21T16:25:32.313Z,15.20
2018-03-21T16:28:01.589Z,20.80
2018-03-21T16:30:30.820Z,8.27
2018-03-21T16:33:00.057Z,4.97
2018-03-21T16:35:29.372Z,4.80
2018-03-21T16:37:58.584Z,3.30
2018-03-21T16:40:27.814Z,4.60
2018-03-21T16:42:56.967Z,6.70
2018-03-21T16:45:26.188Z,9.98
2018-03-21T16:47:55.405Z,18.98
2018-03-21T16:50:24.674Z,7.05
2018-03-21T16:52:53.878Z,3.45
2018-03-21T16:55:23.119Z,2.95
2018-03-21T16:57:52.388Z,3.17
2018-03-21T17:00:21.639Z,2.85
2018-03-21T17:02:50.919Z,3.75
2018-03-21T17:05:20.334Z,3.70
2018-03-21T17:07:49.604Z,55.05
2018-03-21T17:10:18.927Z,70.18
2018-03-21T17:12:48.369Z,13.77
2018-03-21T17:15:17.613Z,5.60
2018-03-21T17:17:46.983Z,8.93
2018-03-21T17:20:16.080Z,15.97
2018-03-21T17:22:45.246Z,16.27
2018-03-21T17:25:14.232Z,9.43
2018-03-21T17:27:43.224Z,7.63
2018-03-21T17:30:12.175Z,5.97
2018-03-21T17:32:41.152Z,5.50
2018-03-21T17:35:10.220Z,5.07
2018-03-21T17:37:39.165Z,5.67
2018-03-21T17:40:08.321Z,5.90
2018-03-21T17:42:37.292Z,16.70
2018-03-21T17:45:06.351Z,94.63
2018-03-21T17:47:35.460Z,103.20
2018-03-21T17:50:04.476Z,65.30
2018-03-21T17:52:33.372Z,13.03
2018-03-21T17:55:02.379Z,13.77
2018-03-21T17:57:31.324Z,13.33
2018-03-21T18:00:00.278Z,13.33
2018-03-21T18:02:29.337Z,13.87
2018-03-21T18:04:58.337Z,17.03
2018-03-21T18:07:27.310Z,17.10
2018-03-21T18:09:56.334Z,19.37
2018-03-21T18:12:25.384Z,20.40
2018-03-21T18:14:54.359Z,25.13
2018-03-21T18:17:23.374Z,24.93
2018-03-21T18:19:52.336Z,23.67
2018-03-21T18:22:21.666Z,23.63
2018-03-21T18:24:51.104Z,23.02
2018-03-21T18:27:20.189Z,24.13
2018-03-21T18:29:49.264Z,25.37
2018-03-21T18:32:18.546Z,26.33
2018-03-21T18:34:47.640Z,26.03
2018-03-21T18:37:16.554Z,26.37
2018-03-21T18:39:45.625Z,25.03
2018-03-21T18:42:14.911Z,26.62
2018-03-21T18:44:43.908Z,26.20
2018-03-21T18:47:13.534Z,26.70
2018-03-21T18:49:42.779Z,79.70
2018-03-21T18:52:11.996Z,63.16
2018-03-21T18:54:41.312Z,59.10
2018-03-21T18:57:10.648Z,28.85
2018-03-21T18:59:39.948Z,26.87
2018-03-21T19:02:09.288Z,25.00
2018-03-21T19:04:38.632Z,24.30
2018-03-21T19:07:07.913Z,20.55
2018-03-21T19:09:37.664Z,18.73
2018-03-21T19:12:08.387Z,16.33
2018-03-21T19:14:39.352Z,15.57
2018-03-21T19:17:10.340Z,14.15
2018-03-21T19:19:42.472Z,12.45
2018-03-21T19:22:12.940Z,12.10
2018-03-21T19:24:43.468Z,11.45
2018-03-21T19:27:15.847Z,10.75
2018-03-21T19:29:45.748Z,10.82
2018-03-21T19:32:16.442Z,11.32
2018-03-21T19:34:47.508Z,11.32
2018-03-21T19:37:18.682Z,11.60
2018-03-21T19:39:49.334Z,12.25
2018-03-21T19:42:20.372Z,12.35
2018-03-21T19:44:51.375Z,11.52
2018-03-21T19:47:22.673Z,11.40
2018-03-21T19:49:53.372Z,11.90
2018-03-21T19:52:24.267Z,11.72
2018-03-21T19:54:55.064Z,10.44
2018-03-21T19:57:25.800Z,10.14
2018-03-21T19:59:56.467Z,10.15
2018-03-21T20:02:27.383Z,10.52
2018-03-21T20:04:58.431Z,11.00
2018-03-21T20:07:29.352Z,11.60
2018-03-21T20:10:00.007Z,13.54
2018-03-21T20:12:30.609Z,12.86
2018-03-21T20:15:01.462Z,12.68
2018-03-21T20:17:31.921Z,12.60
2018-03-21T20:20:02.527Z,12.10
2018-03-21T20:22:33.250Z,12.23
2018-03-21T20:25:04.355Z,12.63
2018-03-21T20:27:35.360Z,12.30
2018-03-21T20:30:06.513Z,12.84
2018-03-21T20:32:36.647Z,12.85
2018-03-21T20:35:07.480Z,12.95
2018-03-21T20:37:38.382Z,12.95
2018-03-21T20:40:09.450Z,12.30
2018-03-21T20:42:40.312Z,13.68
2018-03-21T20:45:11.513Z,14.87
2018-03-21T20:47:42.522Z,14.18
2018-03-21T20:50:14.081Z,14.18
2018-03-21T20:52:44.896Z,15.68
2018-03-21T20:55:15.455Z,16.33
2018-03-21T20:57:46.246Z,15.25
2018-03-21T21:00:16.940Z,14.24
2018-03-21T21:02:47.622Z,13.94
2018-03-21T21:05:18.441Z,15.15
2018-03-21T21:07:49.368Z,15.05
2018-03-21T21:10:21.010Z,16.12
2018-03-21T21:12:51.861Z,14.98
2018-03-21T21:15:22.783Z,16.77
2018-03-21T21:17:53.338Z,19.10
2018-03-21T21:20:24.884Z,18.65
2018-03-21T21:22:55.381Z,18.30
2018-03-21T21:25:26.252Z,22.56
2018-03-21T21:27:56.866Z,21.34
2018-03-21T21:30:28.775Z,17.42
2018-03-21T21:32:58.893Z,18.55
2018-03-21T21:35:29.657Z,18.23
2018-03-21T21:38:00.413Z,16.20
2018-03-21T21:40:30.949Z,17.04
2018-03-21T21:43:01.368Z,18.70
2018-03-21T21:45:32.432Z,19.45
2018-03-21T21:48:02.813Z,19.24
2018-03-21T21:50:33.690Z,17.55
2018-03-21T21:53:04.345Z,16.42
2018-03-21T21:55:35.328Z,15.60
2018-03-21T21:58:06.371Z,15.45
2018-03-21T22:00:37.236Z,14.32
2018-03-21T22:03:08.176Z,14.23
2018-03-21T22:05:39.201Z,14.80
2018-03-21T22:08:10.154Z,14.90
2018-03-21T22:10:41.223Z,15.60
2018-03-21T22:13:12.197Z,16.05
2018-03-21T22:15:43.211Z,15.65
2018-03-21T22:18:14.155Z,16.10
2018-03-21T22:20:45.156Z,14.25
2018-03-21T22:23:16.185Z,16.05
2018-03-21T22:25:47.195Z,15.50
2018-03-21T22:28:18.111Z,15.25
2018-03-21T22:30:49.144Z,17.30
2018-03-21T22:33:20.305Z,18.45
2018-03-21T22:35:51.372Z,18.80
2018-03-21T22:38:22.744Z,19.60
2018-03-21T22:40:52.477Z,19.95
2018-03-21T22:43:23.288Z,19.73
2018-03-21T22:45:55.527Z,21.20
2018-03-21T22:48:25.591Z,20.62
2018-03-21T22:50:56.351Z,19.75
2018-03-21T22:53:27.324Z,21.12
2018-03-21T22:55:58.343Z,21.20
2018-03-21T22:58:29.306Z,18.85
2018-03-21T23:01:00.307Z,17.92
2018-03-21T23:03:31.317Z,15.85
2018-03-21T23:06:02.358Z,16.10
2018-03-21T23:08:32.913Z,15.54
2018-03-21T23:11:03.883Z,15.40
2018-03-21T23:13:34.462Z,15.84
2018-03-21T23:16:05.403Z,15.52
2018-03-21T23:18:36.251Z,15.02
2018-03-21T23:21:06.900Z,16.17
2018-03-21T23:23:38.518Z,18.68
2018-03-21T23:26:09.284Z,18.42
2018-03-21T23:28:40.244Z,18.75
2018-03-21T23:31:11.780Z,17.44
2018-03-21T23:33:42.300Z,17.52
2018-03-21T23:36:13.343Z,16.75
2018-03-21T23:38:44.216Z,18.00
2018-03-21T23:41:15.223Z,17.45
2018-03-21T23:43:46.175Z,16.15
2018-03-21T23:46:17.310Z,17.17
2018-03-21T23:48:48.207Z,17.37
2018-03-21T23:51:19.242Z,17.83
2018-03-21T23:53:50.188Z,16.17
2018-03-21T23:56:21.603Z,16.25
2018-03-21T23:58:51.889Z,15.96
